Time;durP1;ratioP1;P1;durP2;ratioP2;P2;SDS_P1;SDS_P2;PMS_P1;PMS_P2;Temp;Humidity;BMP_temperature;BMP_pressure;BME280_temperature;BME280_humidity;BME280_pressure;Samples;Min_cycle;Max_cycle;Signal;HPM_P1;HPM_P2
2021/03/01 00:58:11;;;;;;;16.92;9.45;;;;;;;;;;5348591;23;20211;-95
2021/03/01 01:04:22;;;;;;;15.18;8.48;;;;;;;;;;4973439;29;20286;-96
2021/03/01 01:07:13;;;;;;;17.65;8.70;;;;;;;;;;4967978;28;20202;-96
2021/03/01 01:09:43;;;;;;;17.83;9.70;;;;;;;;;;4965863;29;20194;-96
2021/03/01 01:12:17;;;;;;;16.10;10.60;;;;;;;;;;4978513;29;20195;-96
2021/03/01 01:14:53;;;;;;;17.90;10.85;;;;;;;;;;4969104;28;20200;-96
2021/03/01 01:17:20;;;;;;;16.95;10.40;;;;;;;;;;4968142;28;20222;-96
2021/03/01 01:20:10;;;;;;;17.80;10.68;;;;;;;;;;5145759;23;20248;-96
2021/03/01 01:22:51;;;;;;;21.02;12.32;;;;;;;;;;5015990;28;20192;-96
2021/03/01 01:25:21;;;;;;;16.00;10.25;;;;;;;;;;5012998;28;20206;-96
2021/03/01 01:27:49;;;;;;;17.90;11.27;;;;;;;;;;5003771;28;20265;-96
2021/03/01 01:30:19;;;;;;;18.98;11.35;;;;;;;;;;5009483;28;20202;-96
2021/03/01 01:32:49;;;;;;;19.88;11.27;;;;;;;;;;5003076;28;20198;-96
2021/03/01 01:35:28;;;;;;;20.08;11.57;;;;;;;;;;4998644;28;20614;-96
2021/03/01 01:37:57;;;;;;;18.85;10.43;;;;;;;;;;5005272;28;20229;-96
2021/03/01 01:40:24;;;;;;;19.60;12.05;;;;;;;;;;5006568;28;20221;-96
2021/03/01 01:42:52;;;;;;;19.85;12.50;;;;;;;;;;5002189;28;20205;-96
2021/03/01 01:45:20;;;;;;;19.58;10.98;;;;;;;;;;5003236;28;20268;-96
2021/03/01 01:47:50;;;;;;;21.00;10.88;;;;;;;;;;5002675;28;20233;-96
2021/03/01 01:50:18;;;;;;;16.40;10.88;;;;;;;;;;5007909;28;20229;-96
2021/03/01 01:52:45;;;;;;;15.95;10.73;;;;;;;;;;5000362;28;20197;-96
2021/03/01 01:55:28;;;;;;;18.42;10.80;;;;;;;;;;4993980;28;20210;-96
2021/03/01 01:57:56;;;;;;;16.95;10.95;;;;;;;;;;5002440;28;20256;-96
2021/03/01 02:03:10;;;;;;;17.95;10.90;;;;;;;;;;5010267;28;20252;-96
2021/03/01 02:05:38;;;;;;;15.65;9.40;;;;;;;;;;5011496;28;20237;-96
2021/03/01 02:08:06;;;;;;;17.45;9.43;;;;;;;;;;5003119;28;20225;-96
2021/03/01 02:10:36;;;;;;;21.05;11.70;;;;;;;;;;5009992;28;20236;-96
2021/03/01 02:13:09;;;;;;;19.77;10.40;;;;;;;;;;4997241;28;20199;-96
2021/03/01 02:15:40;;;;;;;16.10;10.98;;;;;;;;;;5005383;28;20229;-96
2021/03/01 02:18:07;;;;;;;19.08;11.73;;;;;;;;;;4996223;28;20253;-96
2021/03/01 02:20:33;;;;;;;18.27;11.23;;;;;;;;;;5001811;28;20250;-96
2021/03/01 02:23:01;;;;;;;20.13;11.55;;;;;;;;;;5003829;28;20222;-96
2021/03/01 02:25:31;;;;;;;20.10;10.68;;;;;;;;;;4995242;28;20209;-96
2021/03/01 02:28:00;;;;;;;19.95;12.70;;;;;;;;;;5003564;28;20202;-96
2021/03/01 02:30:29;;;;;;;14.02;10.00;;;;;;;;;;4996906;28;20216;-96
2021/03/01 02:32:58;;;;;;;14.27;9.80;;;;;;;;;;4999513;28;20202;-96
2021/03/01 02:35:28;;;;;;;14.48;9.15;;;;;;;;;;4990991;28;20278;-96
2021/03/01 02:37:55;;;;;;;16.10;10.32;;;;;;;;;;5004816;28;20321;-96
2021/03/01 02:40:22;;;;;;;20.60;9.30;;;;;;;;;;4993479;28;20252;-96
2021/03/01 02:42:50;;;;;;;17.27;11.05;;;;;;;;;;4991046;28;20221;-96
2021/03/01 02:45:16;;;;;;;15.77;10.27;;;;;;;;;;4991705;28;20281;-96
2021/03/01 02:47:43;;;;;;;17.70;9.98;;;;;;;;;;4990878;28;20566;-96
2021/03/01 02:50:14;;;;;;;18.23;10.13;;;;;;;;;;4995338;28;20213;-96
2021/03/01 02:52:41;;;;;;;15.75;10.45;;;;;;;;;;4998208;28;20244;-96
2021/03/01 02:55:08;;;;;;;17.23;10.55;;;;;;;;;;4994358;28;20628;-96
2021/03/01 02:57:36;;;;;;;14.07;9.25;;;;;;;;;;4997539;28;20300;-96
2021/03/01 03:00:06;;;;;;;14.10;8.93;;;;;;;;;;5006459;28;20268;-96
2021/03/01 03:02:33;;;;;;;16.50;9.90;;;;;;;;;;4988756;28;20218;-96
2021/03/01 03:05:00;;;;;;;18.20;9.55;;;;;;;;;;4997032;28;20235;-96
2021/03/01 03:07:27;;;;;;;17.40;10.27;;;;;;;;;;4990670;28;20285;-96
2021/03/01 03:09:54;;;;;;;16.58;10.40;;;;;;;;;;4989311;28;20218;-96
2021/03/01 03:12:20;;;;;;;13.43;9.02;;;;;;;;;;4991476;28;20210;-96
2021/03/01 03:14:48;;;;;;;19.95;11.10;;;;;;;;;;4997068;28;20225;-96
2021/03/01 03:17:15;;;;;;;19.35;12.13;;;;;;;;;;5003548;28;20240;-96
2021/03/01 03:19:42;;;;;;;18.50;11.25;;;;;;;;;;4990434;28;20313;-96
2021/03/01 03:22:08;;;;;;;18.08;10.57;;;;;;;;;;4997432;28;20205;-96
2021/03/01 03:24:35;;;;;;;19.65;10.98;;;;;;;;;;4996897;28;20829;-96
2021/03/01 03:27:01;;;;;;;18.10;11.20;;;;;;;;;;4990363;28;20205;-96
2021/03/01 03:29:28;;;;;;;18.70;12.13;;;;;;;;;;4997033;28;20229;-96
2021/03/01 03:31:55;;;;;;;19.67;12.32;;;;;;;;;;4989819;28;20209;-96
2021/03/01 03:34:22;;;;;;;18.67;11.50;;;;;;;;;;4996271;28;20293;-96
2021/03/01 03:36:52;;;;;;;17.45;10.85;;;;;;;;;;4992809;28;20302;-96
2021/03/01 03:39:18;;;;;;;16.60;10.07;;;;;;;;;;4995027;28;20205;-96
2021/03/01 03:41:46;;;;;;;20.63;11.93;;;;;;;;;;4997174;28;20205;-96
2021/03/01 03:44:15;;;;;;;17.55;10.90;;;;;;;;;;4993970;28;20285;-96
2021/03/01 03:46:41;;;;;;;16.27;10.60;;;;;;;;;;4994284;28;20228;-96
2021/03/01 03:49:10;;;;;;;25.05;11.43;;;;;;;;;;4997346;28;21244;-96
2021/03/01 03:51:37;;;;;;;23.33;11.32;;;;;;;;;;5002454;28;20278;-96
2021/03/01 03:54:08;;;;;;;19.52;11.80;;;;;;;;;;4989319;28;20309;-96
2021/03/01 03:56:36;;;;;;;19.77;10.40;;;;;;;;;;4991059;28;20206;-96
2021/03/01 03:59:04;;;;;;;19.00;11.48;;;;;;;;;;4998721;28;20293;-96
2021/03/01 04:01:32;;;;;;;22.27;11.73;;;;;;;;;;4997911;28;20269;-96
2021/03/01 04:04:00;;;;;;;21.83;11.23;;;;;;;;;;5002906;28;20280;-96
2021/03/01 04:06:28;;;;;;;17.55;9.98;;;;;;;;;;4998007;28;20284;-96
2021/03/01 04:08:56;;;;;;;15.18;10.52;;;;;;;;;;4997260;28;20277;-96
2021/03/01 04:11:23;;;;;;;21.13;9.68;;;;;;;;;;5002075;28;20206;-96
2021/03/01 04:13:52;;;;;;;17.77;10.23;;;;;;;;;;5001499;28;20226;-96
2021/03/01 04:16:21;;;;;;;15.98;9.20;;;;;;;;;;5000303;28;20206;-96
2021/03/01 04:18:49;;;;;;;13.20;8.93;;;;;;;;;;5002854;28;20221;-96
2021/03/01 04:21:16;;;;;;;16.02;10.05;;;;;;;;;;5001231;28;20229;-96
2021/03/01 04:23:47;;;;;;;14.20;9.48;;;;;;;;;;4999924;28;20228;-96
2021/03/01 04:26:14;;;;;;;16.50;9.48;;;;;;;;;;5004229;28;20228;-96
2021/03/01 04:28:40;;;;;;;14.88;9.35;;;;;;;;;;5003475;28;20487;-96
2021/03/01 04:31:08;;;;;;;23.73;12.13;;;;;;;;;;5001849;28;20205;-96
2021/03/01 04:33:35;;;;;;;19.35;11.63;;;;;;;;;;5006170;28;20220;-96
2021/03/01 04:36:02;;;;;;;16.30;11.45;;;;;;;;;;5007007;28;20311;-96
2021/03/01 04:38:28;;;;;;;17.80;11.95;;;;;;;;;;5012363;28;20681;-96
2021/03/01 04:40:56;;;;;;;22.20;12.45;;;;;;;;;;5004188;28;20209;-96
2021/03/01 04:43:24;;;;;;;22.48;13.10;;;;;;;;;;5003163;28;20273;-96
2021/03/01 04:45:51;;;;;;;22.52;13.25;;;;;;;;;;5010780;28;20827;-96
2021/03/01 04:48:18;;;;;;;25.75;13.00;;;;;;;;;;5011656;28;20201;-96
2021/03/01 04:50:47;;;;;;;19.88;12.35;;;;;;;;;;5009009;28;20690;-96
2021/03/01 04:53:14;;;;;;;26.15;12.82;;;;;;;;;;4997514;28;20194;-96
2021/03/01 04:55:41;;;;;;;23.27;12.75;;;;;;;;;;5007783;28;20338;-96
2021/03/01 04:58:12;;;;;;;18.95;11.70;;;;;;;;;;4995826;28;20249;-96
2021/03/01 05:00:41;;;;;;;20.88;12.20;;;;;;;;;;4997760;28;20216;-96
2021/03/01 05:03:08;;;;;;;18.27;12.07;;;;;;;;;;5012934;28;20229;-96
2021/03/01 05:05:38;;;;;;;20.02;12.40;;;;;;;;;;5000316;28;20201;-96
2021/03/01 05:08:07;;;;;;;19.38;11.80;;;;;;;;;;5008025;28;20206;-96
2021/03/01 05:10:37;;;;;;;21.52;13.63;;;;;;;;;;5031019;23;20330;-96
2021/03/01 05:13:03;;;;;;;21.95;11.80;;;;;;;;;;5001163;28;20193;-96
2021/03/01 05:15:31;;;;;;;19.50;10.75;;;;;;;;;;4999704;28;20225;-96
2021/03/01 05:18:07;;;;;;;21.38;11.98;;;;;;;;;;5003220;28;20272;-96
2021/03/01 05:23:26;;;;;;;21.35;12.05;;;;;;;;;;5000466;28;20208;-96
2021/03/01 05:25:53;;;;;;;21.95;12.43;;;;;;;;;;4997814;28;20197;-96
2021/03/01 05:28:19;;;;;;;23.80;13.10;;;;;;;;;;5016642;28;20240;-96
2021/03/01 05:30:51;;;;;;;17.60;11.07;;;;;;;;;;5006649;28;20201;-96
2021/03/01 05:36:02;;;;;;;21.52;12.50;;;;;;;;;;5006796;28;20197;-96
2021/03/01 05:38:31;;;;;;;26.98;15.07;;;;;;;;;;5002598;28;20298;-96
2021/03/01 05:51:43;;;;;;;23.55;12.60;;;;;;;;;;5021674;28;20228;-96
2021/03/01 05:54:13;;;;;;;20.65;12.70;;;;;;;;;;5135381;23;20278;-96
2021/03/01 05:56:43;;;;;;;23.70;13.70;;;;;;;;;;5033701;28;20304;-96
2021/03/01 05:59:10;;;;;;;22.58;13.70;;;;;;;;;;5034236;28;20220;-96
2021/03/01 06:01:37;;;;;;;25.55;14.07;;;;;;;;;;5029577;28;20372;-96
2021/03/01 06:04:05;;;;;;;24.92;13.30;;;;;;;;;;5034519;28;20206;-96
2021/03/01 06:06:32;;;;;;;27.20;14.02;;;;;;;;;;5044085;28;20207;-96
2021/03/01 06:09:13;;;;;;;21.88;13.13;;;;;;;;;;5039566;28;20201;-96
2021/03/01 06:14:35;;;;;;;25.60;14.73;;;;;;;;;;5059060;23;20192;-96
2021/03/01 08:30:45;;;;;;;32.60;16.20;;;;;;;;;;6251007;23;20390;-96
2021/03/01 08:33:57;;;;;;;23.20;16.20;;;;;;;;;;6249287;23;20421;-96
2021/03/01 08:36:38;;;;;;;25.10;15.17;;;;;;;;;;6248674;23;20425;-96
2021/03/01 08:41:58;;;;;;;22.33;14.80;;;;;;;;;;6177065;23;20470;-96
2021/03/01 08:52:50;;;;;;;18.73;14.37;;;;;;;;;;6215414;22;20443;-95
2021/03/01 09:31:34;;;;;;;18.73;10.60;;;;;;;;;;6214159;23;20470;-96
2021/03/01 09:46:02;;;;;;;12.37;9.40;;;;;;;;;;6233897;23;20979;-96
2021/03/01 09:54:35;;;;;;;9.10;7.23;;;;;;;;;;6260735;22;20456;-96
2021/03/01 09:57:06;;;;;;;10.83;8.07;;;;;;;;;;6266806;22;20389;-95
2021/03/01 09:59:36;;;;;;;12.70;10.30;;;;;;;;;;6268743;22;20421;-96
2021/03/01 10:05:19;;;;;;;11.87;10.03;;;;;;;;;;6238909;23;20391;-96
2021/03/01 10:07:59;;;;;;;12.57;7.90;;;;;;;;;;6236637;23;20428;-96
2021/03/01 10:13:25;;;;;;;11.40;7.80;;;;;;;;;;6232453;23;20461;-96
2021/03/01 10:18:37;;;;;;;9.20;6.70;;;;;;;;;;6232497;23;20439;-94
2021/03/01 10:21:09;;;;;;;10.60;7.90;;;;;;;;;;6239589;23;20452;-96
2021/03/01 10:26:23;;;;;;;12.13;7.33;;;;;;;;;;6238450;23;20407;-96
2021/03/01 10:28:53;;;;;;;11.00;8.17;;;;;;;;;;6225044;23;20450;-96
2021/03/01 10:31:20;;;;;;;12.90;7.57;;;;;;;;;;6229619;23;20499;-96
2021/03/01 10:33:53;;;;;;;12.00;7.63;;;;;;;;;;6234185;23;20410;-96
2021/03/01 10:36:57;;;;;;;15.10;8.40;;;;;;;;;;6232649;23;20416;-96
2021/03/01 10:42:12;;;;;;;12.83;8.30;;;;;;;;;;6231926;23;20457;-96
2021/03/01 10:48:08;;;;;;;9.60;6.97;;;;;;;;;;6223585;23;20465;-96
2021/03/01 10:50:34;;;;;;;10.23;8.33;;;;;;;;;;6235939;23;20465;-96
2021/03/01 10:53:04;;;;;;;10.97;8.20;;;;;;;;;;6236697;23;20436;-96
2021/03/01 10:55:49;;;;;;;10.27;8.27;;;;;;;;;;6236454;23;20403;-96
2021/03/01 11:06:29;;;;;;;10.33;7.87;;;;;;;;;;6247684;23;20458;-94
2021/03/01 11:08:56;;;;;;;11.70;9.00;;;;;;;;;;6233528;23;20471;-94
2021/03/01 11:14:39;;;;;;;12.43;8.70;;;;;;;;;;6232230;23;20437;-96
2021/03/01 11:17:13;;;;;;;12.40;9.00;;;;;;;;;;6233573;23;20433;-95
2021/03/01 11:19:39;;;;;;;15.83;8.93;;;;;;;;;;6236116;23;20411;-94
2021/03/01 11:22:07;;;;;;;11.50;9.00;;;;;;;;;;6233275;23;20617;-96
2021/03/01 11:24:34;;;;;;;11.87;9.40;;;;;;;;;;6231101;23;20410;-96
2021/03/01 11:27:00;;;;;;;14.80;8.70;;;;;;;;;;6231975;23;20420;-96
2021/03/01 11:32:04;;;;;;;9.77;8.30;;;;;;;;;;6226207;23;20477;-96
2021/03/01 11:34:34;;;;;;;12.03;8.00;;;;;;;;;;6230843;23;20790;-94
2021/03/01 11:37:13;;;;;;;9.63;7.80;;;;;;;;;;6234981;23;20410;-96
2021/03/01 11:39:39;;;;;;;12.67;8.97;;;;;;;;;;6232298;23;20397;-96
2021/03/01 11:42:06;;;;;;;12.60;7.60;;;;;;;;;;6228843;23;20951;-95
2021/03/01 11:44:32;;;;;;;11.07;6.93;;;;;;;;;;6229469;23;20785;-96
2021/03/01 11:47:06;;;;;;;14.20;7.93;;;;;;;;;;6231722;23;20436;-96
2021/03/01 11:49:36;;;;;;;13.03;7.37;;;;;;;;;;6234124;23;20403;-95
2021/03/01 11:52:05;;;;;;;12.43;7.10;;;;;;;;;;6236502;23;20486;-96
2021/03/01 11:54:35;;;;;;;13.47;6.80;;;;;;;;;;6237070;23;20438;-96
2021/03/01 11:59:45;;;;;;;13.20;6.97;;;;;;;;;;6212394;23;20426;-96
2021/03/01 12:02:11;;;;;;;10.10;6.67;;;;;;;;;;6236435;23;20438;-96
2021/03/01 12:04:41;;;;;;;8.50;6.47;;;;;;;;;;6228566;22;20947;-96
2021/03/01 12:07:26;;;;;;;7.13;6.07;;;;;;;;;;6228890;23;20477;-96
2021/03/01 12:09:57;;;;;;;8.23;5.80;;;;;;;;;;6230003;22;20459;-96
2021/03/01 12:12:26;;;;;;;10.80;7.10;;;;;;;;;;6236726;23;20415;-96
2021/03/01 12:21:00;;;;;;;8.53;5.80;;;;;;;;;;6235059;23;20414;-96
2021/03/01 12:23:36;;;;;;;14.67;7.10;;;;;;;;;;6235602;23;20407;-96
2021/03/01 12:28:45;;;;;;;7.03;6.33;;;;;;;;;;6231013;23;20480;-96
2021/03/01 12:31:11;;;;;;;9.00;6.20;;;;;;;;;;6237821;23;20411;-96
2021/03/01 12:33:44;;;;;;;8.27;6.67;;;;;;;;;;6236411;23;20415;-96
2021/03/01 12:36:16;;;;;;;7.70;6.27;;;;;;;;;;6234154;23;20417;-96
2021/03/01 12:38:54;;;;;;;6.50;5.37;;;;;;;;;;6236622;23;20491;-96
2021/03/01 12:41:21;;;;;;;12.70;5.53;;;;;;;;;;6237224;23;20524;-96
2021/03/01 12:43:59;;;;;;;8.90;6.40;;;;;;;;;;6236636;23;20498;-96
2021/03/01 12:46:53;;;;;;;8.97;6.40;;;;;;;;;;6235684;23;20421;-96
2021/03/01 12:49:24;;;;;;;8.83;7.50;;;;;;;;;;6223506;23;20454;-96
2021/03/01 12:54:44;;;;;;;7.20;5.50;;;;;;;;;;6213899;23;20422;-96
2021/03/01 12:57:24;;;;;;;10.67;6.40;;;;;;;;;;6236997;23;20399;-96
2021/03/01 12:59:50;;;;;;;7.77;5.60;;;;;;;;;;6239807;23;20437;-96
2021/03/01 13:04:43;;;;;;;8.90;5.40;;;;;;;;;;6222635;23;20466;-96
2021/03/01 13:07:11;;;;;;;9.13;6.27;;;;;;;;;;6234221;23;20405;-96
2021/03/01 13:09:39;;;;;;;9.33;5.43;;;;;;;;;;6234506;23;20921;-95
2021/03/01 13:12:07;;;;;;;8.13;5.87;;;;;;;;;;6233975;23;20506;-96
2021/03/01 13:14:34;;;;;;;6.73;5.63;;;;;;;;;;6235503;23;20399;-96
2021/03/01 13:17:08;;;;;;;7.47;5.87;;;;;;;;;;6235350;23;20422;-95
2021/03/01 13:19:44;;;;;;;6.53;5.83;;;;;;;;;;6233464;23;20421;-95
2021/03/01 13:22:15;;;;;;;8.63;6.10;;;;;;;;;;6235873;23;20453;-96
2021/03/01 13:24:43;;;;;;;7.83;6.17;;;;;;;;;;6234248;23;20422;-95
2021/03/01 13:27:09;;;;;;;6.97;5.30;;;;;;;;;;6235286;23;20410;-95
2021/03/01 13:29:38;;;;;;;6.73;6.13;;;;;;;;;;6231892;23;20818;-96
2021/03/01 13:32:07;;;;;;;7.23;6.37;;;;;;;;;;6235442;23;20435;-96
2021/03/01 13:34:38;;;;;;;6.30;5.70;;;;;;;;;;6213707;23;20481;-96
2021/03/01 13:37:29;;;;;;;7.67;6.83;;;;;;;;;;6230866;23;20462;-96
2021/03/01 13:40:00;;;;;;;7.50;6.37;;;;;;;;;;6232956;23;20482;-94
2021/03/01 13:42:41;;;;;;;8.10;7.07;;;;;;;;;;6236206;23;20534;-96
2021/03/01 13:45:11;;;;;;;7.73;6.17;;;;;;;;;;6232971;23;20411;-96
2021/03/01 13:47:44;;;;;;;9.40;6.20;;;;;;;;;;6233821;23;20414;-96
2021/03/01 13:50:18;;;;;;;11.03;7.60;;;;;;;;;;6235735;23;20411;-96
2021/03/01 13:52:45;;;;;;;8.63;5.70;;;;;;;;;;6234191;23;20480;-95
2021/03/01 13:55:20;;;;;;;7.13;6.37;;;;;;;;;;6233468;23;20414;-95
2021/03/01 13:57:49;;;;;;;10.70;6.47;;;;;;;;;;6234023;23;20430;-95
2021/03/01 14:00:25;;;;;;;8.70;7.00;;;;;;;;;;6234438;23;20414;-96
2021/03/01 14:02:54;;;;;;;11.40;7.57;;;;;;;;;;6217896;23;20454;-96
2021/03/01 14:05:25;;;;;;;7.83;5.63;;;;;;;;;;6235911;23;20463;-96
2021/03/01 14:07:53;;;;;;;7.87;6.77;;;;;;;;;;6241314;23;20402;-96
2021/03/01 14:10:23;;;;;;;8.67;6.80;;;;;;;;;;6239002;23;20450;-96
2021/03/01 14:15:38;;;;;;;8.80;6.57;;;;;;;;;;6237168;23;20905;-96
2021/03/01 14:18:14;;;;;;;9.23;6.93;;;;;;;;;;6232435;23;20521;-96
2021/03/01 14:20:43;;;;;;;11.83;8.53;;;;;;;;;;6237930;23;20403;-96
2021/03/01 14:25:52;;;;;;;12.70;9.30;;;;;;;;;;6234713;23;20395;-96
2021/03/01 14:28:45;;;;;;;9.87;8.87;;;;;;;;;;6238211;23;20426;-96
2021/03/01 14:31:19;;;;;;;10.07;8.40;;;;;;;;;;6236847;23;20411;-96
2021/03/01 14:33:45;;;;;;;12.07;9.03;;;;;;;;;;6235698;23;20398;-96
2021/03/01 14:36:20;;;;;;;11.80;8.57;;;;;;;;;;6237106;23;20432;-97
2021/03/01 14:38:51;;;;;;;10.43;7.93;;;;;;;;;;6229380;22;20464;-96
2021/03/01 14:41:22;;;;;;;10.97;8.50;;;;;;;;;;6203240;23;20457;-96
2021/03/01 14:43:50;;;;;;;16.27;8.20;;;;;;;;;;6234038;23;20420;-96
2021/03/01 14:46:19;;;;;;;12.77;8.37;;;;;;;;;;6233509;23;20406;-94
2021/03/01 14:48:53;;;;;;;8.07;6.07;;;;;;;;;;6206189;23;20911;-96
2021/03/01 14:51:20;;;;;;;11.57;8.90;;;;;;;;;;6234938;23;20417;-96
2021/03/01 14:53:46;;;;;;;12.33;8.63;;;;;;;;;;6182396;23;20830;-96
2021/03/01 14:56:12;;;;;;;12.40;7.93;;;;;;;;;;6233900;23;20416;-96
2021/03/01 14:59:01;;;;;;;17.13;9.50;;;;;;;;;;6240907;23;20450;-96
2021/03/01 15:04:15;;;;;;;14.57;9.23;;;;;;;;;;6230958;23;20466;-95
2021/03/01 15:06:41;;;;;;;14.43;10.30;;;;;;;;;;6227616;23;20440;-94
2021/03/01 15:09:20;;;;;;;14.10;11.30;;;;;;;;;;6233471;23;20548;-96
2021/03/01 15:11:46;;;;;;;12.80;9.90;;;;;;;;;;6230559;23;20425;-96
2021/03/01 15:14:13;;;;;;;10.50;9.40;;;;;;;;;;6235684;23;20423;-96
2021/03/01 15:16:39;;;;;;;11.50;9.57;;;;;;;;;;6227610;23;20461;-95
2021/03/01 15:19:06;;;;;;;19.13;10.07;;;;;;;;;;6234055;23;20411;-96
2021/03/01 15:21:36;;;;;;;11.37;9.50;;;;;;;;;;6234166;23;20448;-95
2021/03/01 15:24:14;;;;;;;12.93;10.00;;;;;;;;;;6230993;23;20481;-96
2021/03/01 15:26:41;;;;;;;12.83;10.30;;;;;;;;;;6232962;23;20410;-96
2021/03/01 15:29:07;;;;;;;12.03;9.10;;;;;;;;;;6233145;23;20481;-96
2021/03/01 15:31:49;;;;;;;11.53;8.73;;;;;;;;;;6231594;23;20921;-96
2021/03/01 15:34:16;;;;;;;10.90;9.77;;;;;;;;;;6233319;23;20931;-96
2021/03/01 15:36:42;;;;;;;11.83;9.23;;;;;;;;;;6205949;23;20418;-95
2021/03/01 15:39:10;;;;;;;12.80;7.93;;;;;;;;;;6235075;23;20442;-96
2021/03/01 15:44:16;;;;;;;14.27;9.17;;;;;;;;;;6230832;23;20411;-96
2021/03/01 15:46:47;;;;;;;17.73;10.83;;;;;;;;;;6226964;23;20479;-96
2021/03/01 15:49:15;;;;;;;10.47;8.93;;;;;;;;;;6239806;23;20397;-96
2021/03/01 15:51:43;;;;;;;13.63;9.97;;;;;;;;;;6235065;23;20405;-96
2021/03/01 15:54:10;;;;;;;12.27;10.30;;;;;;;;;;6235016;23;20418;-96
2021/03/01 15:56:36;;;;;;;10.70;9.30;;;;;;;;;;6235956;23;20399;-96
2021/03/01 15:59:02;;;;;;;11.10;8.97;;;;;;;;;;6233870;23;20443;-95
2021/03/01 16:01:29;;;;;;;11.63;7.90;;;;;;;;;;6233069;23;20470;-96
2021/03/01 16:04:04;;;;;;;8.43;7.30;;;;;;;;;;6234171;23;20415;-94
2021/03/01 16:06:31;;;;;;;8.60;7.20;;;;;;;;;;6232874;23;20439;-96
2021/03/01 16:08:58;;;;;;;11.70;7.63;;;;;;;;;;6204913;23;20447;-96
2021/03/01 16:11:25;;;;;;;9.17;7.80;;;;;;;;;;6205445;23;20435;-96
2021/03/01 16:13:51;;;;;;;10.07;8.27;;;;;;;;;;6206135;23;20408;-96
2021/03/01 16:18:49;;;;;;;11.00;8.35;;;;;;;;;;6193406;23;20447;-94
2021/03/01 16:21:33;;;;;;;11.00;9.10;;;;;;;;;;6203943;23;20224;-96
2021/03/01 16:23:59;;;;;;;9.43;8.43;;;;;;;;;;6204116;23;20426;-96
2021/03/01 16:26:29;;;;;;;10.60;8.20;;;;;;;;;;6204365;23;20411;-95
2021/03/01 16:28:57;;;;;;;11.00;8.57;;;;;;;;;;6204891;23;20427;-96
2021/03/01 16:31:34;;;;;;;12.70;6.87;;;;;;;;;;6204155;23;20424;-96
2021/03/01 16:34:02;;;;;;;21.30;7.80;;;;;;;;;;6177430;23;20407;-94
2021/03/01 16:36:41;;;;;;;8.33;6.80;;;;;;;;;;6204709;23;20454;-96
2021/03/01 16:39:24;;;;;;;8.80;7.90;;;;;;;;;;6204150;23;20438;-96
2021/03/01 16:42:15;;;;;;;9.80;7.03;;;;;;;;;;6199746;23;20442;-96
2021/03/01 16:45:06;;;;;;;8.90;7.47;;;;;;;;;;6208713;23;20429;-96
2021/03/01 16:47:59;;;;;;;8.47;6.77;;;;;;;;;;6197347;23;20439;31
2021/03/01 16:53:09;;;;;;;10.07;7.80;;;;;;;;;;6161366;23;20451;-96
2021/03/01 16:55:42;;;;;;;8.47;7.67;;;;;;;;;;6205463;23;20438;-96
2021/03/01 16:58:13;;;;;;;10.07;8.63;;;;;;;;;;6207871;23;20408;-96
2021/03/01 17:00:41;;;;;;;11.67;8.47;;;;;;;;;;6179742;23;20422;-96
2021/03/01 17:03:11;;;;;;;10.00;8.37;;;;;;;;;;6207644;23;20439;-96
2021/03/01 17:05:43;;;;;;;15.63;11.30;;;;;;;;;;6206387;23;20409;-96
2021/03/01 17:08:12;;;;;;;15.77;11.53;;;;;;;;;;6204120;23;20438;-96
2021/03/01 17:10:44;;;;;;;12.40;9.37;;;;;;;;;;6208173;23;20476;-96
2021/03/01 17:13:11;;;;;;;13.73;10.70;;;;;;;;;;6205941;23;20443;-94
2021/03/01 17:15:43;;;;;;;12.40;9.30;;;;;;;;;;6198175;23;20422;-96
2021/03/01 17:18:12;;;;;;;9.87;8.60;;;;;;;;;;6203733;23;20407;-96
2021/03/01 17:20:39;;;;;;;10.97;8.47;;;;;;;;;;6170980;23;20498;-96
2021/03/01 17:23:06;;;;;;;11.20;8.37;;;;;;;;;;6174812;23;21023;-94
2021/03/01 17:25:33;;;;;;;9.50;7.70;;;;;;;;;;6198388;23;20443;-96
2021/03/01 17:28:00;;;;;;;11.03;7.73;;;;;;;;;;6198282;23;20419;-96
2021/03/01 17:30:26;;;;;;;10.37;8.30;;;;;;;;;;6196117;23;20412;-95
2021/03/01 17:32:52;;;;;;;11.13;8.53;;;;;;;;;;6199170;23;20416;-96
2021/03/01 17:35:19;;;;;;;13.23;9.70;;;;;;;;;;6196356;23;20422;-95
2021/03/01 17:37:49;;;;;;;11.03;7.80;;;;;;;;;;6202100;23;20461;-96
2021/03/01 17:40:18;;;;;;;10.63;7.43;;;;;;;;;;6205603;23;20443;-95
2021/03/01 17:42:51;;;;;;;10.90;8.10;;;;;;;;;;6202487;23;20487;-96
2021/03/01 17:45:19;;;;;;;8.83;7.90;;;;;;;;;;6206814;23;20395;-96
2021/03/01 17:47:50;;;;;;;12.50;9.23;;;;;;;;;;6204714;23;20426;-96
2021/03/01 17:50:20;;;;;;;14.80;9.40;;;;;;;;;;6202035;23;20403;-96
2021/03/01 17:52:48;;;;;;;14.60;9.40;;;;;;;;;;6199479;23;20466;-96
2021/03/01 17:55:19;;;;;;;12.97;9.23;;;;;;;;;;6200126;23;20407;-96
2021/03/01 17:57:50;;;;;;;16.20;10.93;;;;;;;;;;6198017;23;20422;-96
2021/03/01 18:00:19;;;;;;;14.10;10.40;;;;;;;;;;6196536;23;20404;-95
2021/03/01 18:02:48;;;;;;;19.10;10.43;;;;;;;;;;6204255;23;20446;-95
2021/03/01 18:05:15;;;;;;;15.03;10.43;;;;;;;;;;6200548;23;20421;-96
2021/03/01 18:07:45;;;;;;;12.83;8.37;;;;;;;;;;6200073;23;20469;-96
2021/03/01 18:10:15;;;;;;;16.37;9.80;;;;;;;;;;6205414;23;20411;-96
2021/03/01 18:12:42;;;;;;;17.73;11.27;;;;;;;;;;6180992;23;20608;-96
2021/03/01 18:15:10;;;;;;;16.90;10.50;;;;;;;;;;6199192;23;20412;-96
2021/03/01 18:17:36;;;;;;;18.03;11.97;;;;;;;;;;6193834;23;20407;-96
2021/03/01 18:20:03;;;;;;;15.77;11.23;;;;;;;;;;6194309;23;20422;-96
2021/03/01 18:22:33;;;;;;;13.40;9.87;;;;;;;;;;6197555;23;20634;-96
2021/03/01 18:25:10;;;;;;;11.30;9.07;;;;;;;;;;6200764;23;20557;-96
2021/03/01 18:27:42;;;;;;;10.60;8.70;;;;;;;;;;6202429;23;20419;-96
2021/03/01 18:30:10;;;;;;;17.43;13.07;;;;;;;;;;6176272;23;21221;-96
2021/03/01 18:32:39;;;;;;;19.07;12.20;;;;;;;;;;6197867;23;20411;-96
2021/03/01 18:35:06;;;;;;;17.77;11.37;;;;;;;;;;6194816;23;20411;-96
2021/03/01 18:37:38;;;;;;;18.30;12.13;;;;;;;;;;6194438;23;20750;-96
2021/03/01 18:40:06;;;;;;;14.93;11.53;;;;;;;;;;6191606;23;20446;-96
2021/03/01 18:42:34;;;;;;;24.40;13.43;;;;;;;;;;6193152;23;20466;-96
2021/03/01 18:45:01;;;;;;;15.87;11.77;;;;;;;;;;6194266;23;20412;-96
2021/03/01 18:47:28;;;;;;;18.47;12.87;;;;;;;;;;6196409;23;20408;-96
2021/03/01 18:49:55;;;;;;;15.20;12.17;;;;;;;;;;6193956;23;20412;-96
2021/03/01 18:52:22;;;;;;;16.50;10.95;;;;;;;;;;6194515;23;20442;-96
2021/03/01 18:54:48;;;;;;;12.70;10.70;;;;;;;;;;6193927;23;20175;-96
2021/03/01 18:57:15;;;;;;;22.97;12.07;;;;;;;;;;6196221;23;20426;-96
2021/03/01 18:59:43;;;;;;;14.07;10.37;;;;;;;;;;6191034;23;20414;-96
2021/03/01 19:02:09;;;;;;;14.57;10.25;;;;;;;;;;6193061;23;20459;-96
2021/03/01 19:04:36;;;;;;;13.70;9.77;;;;;;;;;;6193814;23;20634;-96
2021/03/01 19:07:02;;;;;;;18.92;11.32;;;;;;;;;;6195636;23;20414;-96
2021/03/01 19:09:28;;;;;;;14.98;12.07;;;;;;;;;;6192465;23;20179;-96
2021/03/01 19:11:54;;;;;;;14.77;10.40;;;;;;;;;;6192019;23;20199;-96
2021/03/01 19:14:20;;;;;;;16.27;9.98;;;;;;;;;;6195211;23;20424;-96
2021/03/01 19:16:46;;;;;;;12.57;9.90;;;;;;;;;;6194695;23;20264;-96
2021/03/01 19:19:12;;;;;;;13.07;9.27;;;;;;;;;;6201668;23;20178;-96
2021/03/01 19:21:39;;;;;;;16.50;10.63;;;;;;;;;;6200110;23;20202;-96
2021/03/01 19:24:08;;;;;;;13.30;10.40;;;;;;;;;;6196248;23;20181;-96
2021/03/01 19:26:34;;;;;;;12.77;8.40;;;;;;;;;;6197596;23;20254;-96
2021/03/01 19:29:01;;;;;;;12.47;9.60;;;;;;;;;;6196043;23;20182;-96
2021/03/01 19:31:27;;;;;;;15.07;9.40;;;;;;;;;;6195394;23;20411;-96
2021/03/01 19:33:53;;;;;;;13.00;9.27;;;;;;;;;;6196051;23;20173;-96
2021/03/01 19:36:19;;;;;;;12.20;9.48;;;;;;;;;;6194376;23;20180;-96
2021/03/01 19:38:49;;;;;;;11.45;8.63;;;;;;;;;;6197738;23;20184;-96
2021/03/01 19:41:15;;;;;;;15.60;9.25;;;;;;;;;;6198136;23;20175;-96
2021/03/01 19:43:41;;;;;;;14.38;9.43;;;;;;;;;;6197702;23;20210;-96
2021/03/01 19:46:07;;;;;;;10.07;8.30;;;;;;;;;;6194701;23;20177;-96
2021/03/01 19:48:33;;;;;;;8.48;7.00;;;;;;;;;;6194236;23;20191;-96
2021/03/01 19:50:59;;;;;;;10.90;7.93;;;;;;;;;;6192842;23;20180;-96
2021/03/01 19:53:25;;;;;;;9.52;7.97;;;;;;;;;;6195283;23;20233;-96
2021/03/01 19:55:52;;;;;;;11.38;8.65;;;;;;;;;;6195787;23;20190;-96
2021/03/01 19:58:19;;;;;;;11.27;8.13;;;;;;;;;;6195417;23;20619;-96
2021/03/01 20:00:45;;;;;;;10.25;8.10;;;;;;;;;;6196761;23;20702;-96
2021/03/01 20:03:11;;;;;;;9.65;7.18;;;;;;;;;;6196386;23;20670;-96
2021/03/01 20:05:37;;;;;;;12.18;8.10;;;;;;;;;;6169583;23;20183;-96
2021/03/01 20:08:04;;;;;;;9.80;7.40;;;;;;;;;;6200003;23;20203;-96
2021/03/01 20:10:30;;;;;;;12.45;8.73;;;;;;;;;;6197415;23;20237;-96
2021/03/01 20:13:00;;;;;;;13.00;8.88;;;;;;;;;;6191306;23;20182;-96
2021/03/01 20:15:26;;;;;;;12.55;8.70;;;;;;;;;;6193101;23;20187;-96
2021/03/01 20:17:52;;;;;;;11.23;8.55;;;;;;;;;;6193152;23;20186;-96
2021/03/01 20:20:18;;;;;;;11.90;8.65;;;;;;;;;;6194788;23;20226;-95
2021/03/01 20:22:44;;;;;;;11.90;9.32;;;;;;;;;;6192810;23;20254;-96
2021/03/01 20:25:11;;;;;;;12.43;8.53;;;;;;;;;;6194157;23;20183;-96
2021/03/01 20:27:37;;;;;;;14.20;10.20;;;;;;;;;;6193215;23;20430;-96